createdAt,value
2022-10-29T00:02:06.315Z,92706.41
2022-10-29T00:04:33.002Z,92706.44
2022-10-29T00:06:59.580Z,92706.31
2022-10-29T00:09:26.257Z,92704.13
2022-10-29T00:11:52.882Z,92701.22
2022-10-29T00:14:19.505Z,92702.16
2022-10-29T00:16:46.094Z,92698.56
2022-10-29T00:19:12.690Z,92691.69
2022-10-29T00:21:40.488Z,92691.03
2022-10-29T00:24:09.593Z,92689.53
2022-10-29T00:26:36.227Z,92690.13
2022-10-29T00:29:02.858Z,92691.56
2022-10-29T00:31:29.632Z,92684.34
2022-10-29T00:33:56.340Z,92684.47
2022-10-29T00:36:24.987Z,92690.88
2022-10-29T00:38:51.615Z,92678.25
2022-10-29T00:41:20.802Z,92678.47
2022-10-29T00:43:52.007Z,92680.53
2022-10-29T00:46:31.448Z,92671.38
2022-10-29T00:48:58.104Z,92673.50
2022-10-29T00:51:24.781Z,92670.78
2022-10-29T00:53:56.280Z,92671.94
2022-10-29T00:56:23.510Z,92669.00
2022-10-29T00:58:50.090Z,92668.31
2022-10-29T01:01:16.898Z,92666.84
2022-10-29T01:03:43.741Z,92667.75
2022-10-29T01:06:10.316Z,92667.44
2022-10-29T01:08:36.919Z,92664.47
2022-10-29T01:11:23.050Z,92664.25
2022-10-29T01:13:58.050Z,92656.75
2022-10-29T01:17:00.678Z,92650.72
2022-10-29T01:19:55.819Z,92654.69
2022-10-29T01:22:45.634Z,92655.94
2022-10-29T01:25:20.779Z,92652.72
2022-10-29T01:28:06.898Z,92656.59
2022-10-29T01:31:10.508Z,92646.38
2022-10-29T01:34:13.350Z,92647.59
2022-10-29T01:36:44.320Z,92661.25
2022-10-29T01:39:17.282Z,92651.59
2022-10-29T01:41:54.239Z,92654.81
2022-10-29T01:44:36.759Z,92645.03
2022-10-29T01:47:18.353Z,92642.28
2022-10-29T01:49:47.930Z,92644.09
2022-10-29T01:52:15.358Z,92638.22
2022-10-29T01:54:45.418Z,92635.28
2022-10-29T01:57:38.144Z,92641.75
2022-10-29T02:00:15.585Z,92641.25
2022-10-29T02:02:48.381Z,92643.75
2022-10-29T02:05:19.210Z,92640.69
2022-10-29T02:07:52.500Z,92646.59
2022-10-29T02:10:27.507Z,92640.53
2022-10-29T02:12:54.510Z,92635.06
2022-10-29T02:15:39.461Z,92628.28
2022-10-29T02:18:07.090Z,92630.94
2022-10-29T02:20:33.871Z,92618.81
2022-10-29T02:23:00.611Z,92628.47
2022-10-29T02:25:27.693Z,92621.19
2022-10-29T02:27:54.666Z,92625.59
2022-10-29T02:30:21.434Z,92616.06
2022-10-29T02:32:48.040Z,92623.38
2022-10-29T02:35:14.766Z,92625.34
2022-10-29T02:37:41.525Z,92620.41
2022-10-29T02:40:08.698Z,92623.59
2022-10-29T02:42:35.362Z,92621.50
2022-10-29T02:45:02.009Z,92618.13
2022-10-29T02:47:28.773Z,92620.50
2022-10-29T02:49:55.517Z,92625.25
2022-10-29T02:52:22.205Z,92620.25
2022-10-29T02:54:48.776Z,92619.25
2022-10-29T02:57:15.437Z,92603.31
2022-10-29T02:59:42.134Z,92611.53
2022-10-29T03:02:08.867Z,92609.25
2022-10-29T03:04:35.566Z,92615.00
2022-10-29T03:07:02.367Z,92617.44
2022-10-29T03:09:29.022Z,92619.94
2022-10-29T03:11:55.691Z,92621.91
2022-10-29T03:14:22.424Z,92619.53
2022-10-29T03:16:48.998Z,92616.00
2022-10-29T03:19:15.570Z,92608.53
2022-10-29T03:21:42.218Z,92608.66
2022-10-29T03:24:08.926Z,92607.94
2022-10-29T03:26:35.496Z,92600.09
2022-10-29T03:29:02.237Z,92604.47
2022-10-29T03:31:28.899Z,92606.44
2022-10-29T03:33:55.504Z,92613.44
2022-10-29T03:36:22.285Z,92602.31
2022-10-29T03:38:48.921Z,92599.53
2022-10-29T03:41:15.561Z,92603.66
2022-10-29T03:43:42.219Z,92612.19
2022-10-29T03:46:09.088Z,92607.66
2022-10-29T03:48:35.693Z,92607.38
2022-10-29T03:51:05.988Z,92597.56
2022-10-29T03:53:33.394Z,92598.91
2022-10-29T03:56:00.048Z,92592.31
2022-10-29T03:58:26.840Z,92587.06
2022-10-29T04:01:00.973Z,92602.94
2022-10-29T04:03:28.422Z,92598.13
2022-10-29T04:05:54.966Z,92599.34
2022-10-29T04:08:21.813Z,92594.06
2022-10-29T04:10:50.337Z,92605.78
2022-10-29T04:13:17.069Z,92602.22
2022-10-29T04:15:43.740Z,92612.22
2022-10-29T04:18:10.599Z,92602.50
2022-10-29T04:21:03.136Z,92598.25
2022-10-29T04:28:57.435Z,92600.03
2022-10-29T04:31:24.124Z,92592.28
2022-10-29T04:33:53.072Z,92596.91
2022-10-29T04:36:19.718Z,92603.84
2022-10-29T04:38:46.337Z,92599.63
2022-10-29T04:41:13.033Z,92599.78
2022-10-29T04:43:39.724Z,92596.59
2022-10-29T04:46:06.378Z,92605.31
2022-10-29T04:48:33.125Z,92604.44
2022-10-29T04:50:59.708Z,92605.59
2022-10-29T04:53:26.387Z,92612.78
2022-10-29T04:56:05.698Z,92602.78
2022-10-29T04:58:32.332Z,92607.47
2022-10-29T05:01:02.817Z,92604.81
2022-10-29T05:03:29.641Z,92608.88
2022-10-29T05:05:56.221Z,92606.41
2022-10-29T05:08:22.946Z,92607.31
2022-10-29T05:10:49.516Z,92610.44
2022-10-29T05:13:16.185Z,92609.25
2022-10-29T05:15:42.794Z,92616.72
2022-10-29T05:18:10.162Z,92615.75
2022-10-29T05:20:36.750Z,92612.66
2022-10-29T05:23:05.703Z,92616.69
2022-10-29T05:25:33.023Z,92613.75
2022-10-29T05:28:06.804Z,92621.53
2022-10-29T05:30:33.704Z,92623.63
2022-10-29T05:33:00.370Z,92629.84
2022-10-29T05:35:27.491Z,92630.41
2022-10-29T05:37:54.616Z,92628.59
2022-10-29T05:40:21.883Z,92632.25
2022-10-29T05:42:48.582Z,92627.84
2022-10-29T05:45:15.385Z,92634.44
2022-10-29T05:47:41.974Z,92636.25
2022-10-29T05:50:09.194Z,92629.56
2022-10-29T05:52:35.811Z,92639.56
2022-10-29T05:55:02.434Z,92639.16
2022-10-29T05:57:29.048Z,92647.16
2022-10-29T05:59:55.699Z,92644.00
2022-10-29T06:02:22.483Z,92636.75
2022-10-29T06:04:49.191Z,92640.41
2022-10-29T06:07:15.816Z,92641.84
2022-10-29T06:09:42.447Z,92632.09
2022-10-29T06:12:09.061Z,92634.53
2022-10-29T06:14:35.629Z,92635.69
2022-10-29T06:17:02.331Z,92634.91
2022-10-29T06:19:29.039Z,92636.56
2022-10-29T06:21:59.431Z,92631.75
2022-10-29T06:24:27.522Z,92637.69
2022-10-29T06:26:54.584Z,92625.44
2022-10-29T06:29:21.284Z,92632.09
2022-10-29T06:31:47.943Z,92635.56
2022-10-29T06:34:14.948Z,92627.78
2022-10-29T06:36:41.640Z,92633.06
2022-10-29T06:39:08.327Z,92633.50
2022-10-29T06:41:34.961Z,92624.06
2022-10-29T06:44:01.703Z,92628.63
2022-10-29T06:46:28.321Z,92629.03
2022-10-29T06:48:55.013Z,92631.16
2022-10-29T06:53:54.805Z,92632.22
2022-10-29T06:56:21.729Z,92637.16
2022-10-29T06:58:48.305Z,92637.31
2022-10-29T07:01:14.922Z,92633.81
2022-10-29T07:03:41.712Z,92633.59
2022-10-29T07:06:08.272Z,92639.41
2022-10-29T07:08:34.934Z,92633.88
2022-10-29T07:11:02.902Z,92632.41
2022-10-29T07:13:29.615Z,92632.31
2022-10-29T07:15:56.388Z,92623.25
2022-10-29T07:18:23.002Z,92627.38
2022-10-29T07:20:49.580Z,92619.97
2022-10-29T07:23:16.279Z,92621.81
2022-10-29T07:25:43.048Z,92624.00
2022-10-29T07:28:13.730Z,92617.31
2022-10-29T07:30:40.646Z,92618.44
2022-10-29T07:33:07.250Z,92623.72
2022-10-29T07:35:34.810Z,92618.28
2022-10-29T07:38:05.478Z,92617.56
2022-10-29T07:40:37.836Z,92618.88
2022-10-29T07:43:04.554Z,92613.97
2022-10-29T07:45:31.284Z,92601.91
2022-10-29T07:48:03.055Z,92603.00
2022-10-29T07:50:30.162Z,92607.69
2022-10-29T07:52:59.010Z,92601.69
2022-10-29T07:55:25.906Z,92605.06
2022-10-29T07:58:01.213Z,92600.75
2022-10-29T08:00:28.832Z,92600.41
2022-10-29T08:02:55.483Z,92589.31
2022-10-29T08:05:22.660Z,92601.81
2022-10-29T08:07:49.374Z,92594.69
2022-10-29T08:10:16.643Z,92588.47
2022-10-29T08:12:56.533Z,92589.38
2022-10-29T08:15:24.013Z,92575.38
2022-10-29T08:17:50.871Z,92573.78
2022-10-29T08:20:17.554Z,92576.13
2022-10-29T08:22:44.218Z,92578.63
2022-10-29T08:25:10.934Z,92577.69
2022-10-29T08:27:37.810Z,92579.81
2022-10-29T08:30:08.463Z,92576.59
2022-10-29T08:32:35.634Z,92575.66
2022-10-29T08:35:02.642Z,92568.38
2022-10-29T08:37:29.374Z,92568.28
2022-10-29T08:39:55.991Z,92563.22
2022-10-29T08:42:41.747Z,92568.69
2022-10-29T08:45:11.050Z,92570.28
2022-10-29T08:47:52.984Z,92557.03
2022-10-29T08:50:30.530Z,92565.13
2022-10-29T08:53:19.401Z,92568.34
2022-10-29T08:55:43.811Z,92560.63
2022-10-29T08:58:16.674Z,92562.53
2022-10-29T09:00:43.462Z,92557.19
2022-10-29T09:03:11.748Z,92558.56
2022-10-29T09:05:52.936Z,92559.63
2022-10-29T09:08:40.977Z,92558.84
2022-10-29T09:11:27.630Z,92546.81
2022-10-29T09:14:28.403Z,92554.75
2022-10-29T09:17:14.540Z,92556.63
2022-10-29T09:20:07.969Z,92544.63
2022-10-29T09:22:37.430Z,92546.47
2022-10-29T09:25:12.941Z,92547.03
2022-10-29T09:28:13.285Z,92542.94
2022-10-29T09:30:56.732Z,92539.44
2022-10-29T09:33:23.372Z,92536.69
2022-10-29T09:35:53.945Z,92540.91
2022-10-29T09:38:24.497Z,92536.69
2022-10-29T09:40:51.252Z,92534.69
2022-10-29T09:43:45.146Z,92534.75
2022-10-29T09:46:27.045Z,92534.03
2022-10-29T09:49:30.459Z,92525.22
2022-10-29T09:52:00.880Z,92521.31
2022-10-29T09:54:28.818Z,92515.13
2022-10-29T09:56:56.120Z,92509.13
2022-10-29T09:59:30.081Z,92509.63
2022-10-29T10:01:58.064Z,92507.94
2022-10-29T10:04:40.379Z,92501.22
2022-10-29T10:07:10.952Z,92496.47
2022-10-29T10:09:59.302Z,92499.09
2022-10-29T10:12:27.886Z,92494.47
2022-10-29T10:15:16.221Z,92489.03
2022-10-29T10:18:06.004Z,92485.63
2022-10-29T10:20:44.235Z,92480.78
2022-10-29T10:23:30.465Z,92477.16
2022-10-29T10:26:02.024Z,92471.84
2022-10-29T10:28:31.817Z,92469.38
2022-10-29T10:31:10.876Z,92462.09
2022-10-29T10:33:43.750Z,92457.22
2022-10-29T10:36:10.426Z,92465.41
2022-10-29T10:38:49.251Z,92454.84
2022-10-29T10:41:16.824Z,92450.94
2022-10-29T10:43:46.385Z,92445.84
2022-10-29T10:46:27.491Z,92449.97
2022-10-29T10:49:02.372Z,92447.63
2022-10-29T10:51:36.309Z,92439.75
2022-10-29T10:54:06.223Z,92431.16
2022-10-29T10:56:32.914Z,92433.31
2022-10-29T10:59:12.702Z,92423.75
2022-10-29T11:01:44.150Z,92427.38
2022-10-29T11:04:31.639Z,92426.81
2022-10-29T11:06:59.805Z,92421.38
2022-10-29T11:09:33.877Z,92417.19
2022-10-29T11:12:24.728Z,92415.38
2022-10-29T11:14:55.846Z,92418.75
2022-10-29T11:17:22.380Z,92413.19
2022-10-29T11:19:49.234Z,92409.09
2022-10-29T11:22:34.021Z,92408.41
2022-10-29T11:25:45.970Z,92404.75
2022-10-29T11:28:19.796Z,92405.13
2022-10-29T11:31:09.176Z,92390.88
2022-10-29T11:33:47.606Z,92391.00
2022-10-29T11:36:24.109Z,92388.81
2022-10-29T11:38:59.175Z,92382.72
2022-10-29T11:41:44.954Z,92389.16
2022-10-29T11:44:12.852Z,92386.56
2022-10-29T11:47:05.499Z,92385.13
2022-10-29T11:50:02.027Z,92385.81
2022-10-29T11:52:49.767Z,92383.59
2022-10-29T11:55:43.689Z,92378.41
2022-10-29T11:58:19.623Z,92373.66
2022-10-29T12:01:00.471Z,92381.00
2022-10-29T12:03:53.014Z,92372.81
2022-10-29T12:06:43.925Z,92365.91
2022-10-29T12:09:32.594Z,92365.66
2022-10-29T12:12:04.002Z,92360.50
2022-10-29T12:14:38.985Z,92358.84
2022-10-29T12:17:34.535Z,92362.69
2022-10-29T12:20:14.935Z,92363.00
2022-10-29T12:22:52.726Z,92355.97
2022-10-29T12:25:30.923Z,92355.38
2022-10-29T12:28:21.803Z,92359.19
2022-10-29T12:30:57.529Z,92349.50
2022-10-29T12:33:28.852Z,92353.78
2022-10-29T12:36:10.671Z,92346.28
2022-10-29T12:38:53.698Z,92337.94
2022-10-29T12:41:52.885Z,92331.84
2022-10-29T12:44:44.850Z,92334.41
2022-10-29T12:47:16.850Z,92334.97
2022-10-29T12:50:05.624Z,92334.72
2022-10-29T12:52:40.422Z,92326.72
2022-10-29T12:55:07.558Z,92330.97
2022-10-29T12:57:35.077Z,92329.41
2022-10-29T13:00:23.552Z,92323.66
2022-10-29T13:02:52.096Z,92320.25
2022-10-29T13:05:35.974Z,92326.91
2022-10-29T13:08:09.172Z,92317.13
2022-10-29T13:10:35.764Z,92323.63
2022-10-29T13:13:05.625Z,92316.47
2022-10-29T13:15:58.576Z,92322.53
2022-10-29T13:18:29.309Z,92314.94
2022-10-29T13:20:55.920Z,92315.78
2022-10-29T13:23:22.517Z,92317.97
2022-10-29T13:25:49.477Z,92310.47
2022-10-29T13:28:16.037Z,92304.13
2022-10-29T13:30:43.717Z,92305.97
2022-10-29T13:33:30.558Z,92307.78
2022-10-29T13:36:15.579Z,92305.19
2022-10-29T13:38:57.930Z,92296.66
2022-10-29T13:41:40.306Z,92303.78
2022-10-29T13:44:26.215Z,92303.38
2022-10-29T13:47:05.551Z,92300.28
2022-10-29T13:49:43.410Z,92301.44
2022-10-29T13:52:10.024Z,92303.06
2022-10-29T13:54:48.677Z,92293.03
2022-10-29T13:57:21.347Z,92296.13
2022-10-29T13:59:56.344Z,92290.28
2022-10-29T14:02:30.557Z,92295.50
2022-10-29T14:05:25.011Z,92277.09
2022-10-29T14:08:15.768Z,92280.16
2022-10-29T14:10:42.239Z,92285.72
2022-10-29T14:13:25.260Z,92283.72
2022-10-29T14:16:07.032Z,92282.84
2022-10-29T14:18:33.703Z,92277.25
2022-10-29T14:21:01.434Z,92281.41
2022-10-29T14:23:28.938Z,92272.63
2022-10-29T14:26:04.766Z,92276.63
2022-10-29T14:28:33.120Z,92278.31
2022-10-29T14:31:03.906Z,92268.19
2022-10-29T14:33:31.642Z,92272.31
2022-10-29T14:36:15.529Z,92262.25
2022-10-29T14:38:45.987Z,92272.88
2022-10-29T14:41:12.670Z,92271.88
2022-10-29T14:43:39.437Z,92272.41
2022-10-29T14:46:14.029Z,92280.38
2022-10-29T14:48:45.414Z,92277.03
2022-10-29T14:51:18.835Z,92274.31
2022-10-29T14:53:45.501Z,92272.84
2022-10-29T14:56:12.780Z,92277.91
2022-10-29T14:58:39.431Z,92277.16
2022-10-29T15:01:13.856Z,92275.34
2022-10-29T15:03:40.601Z,92272.75
2022-10-29T15:06:20.908Z,92281.78
2022-10-29T15:09:13.822Z,92275.38
2022-10-29T15:11:42.343Z,92279.78
2022-10-29T15:14:30.085Z,92279.47
2022-10-29T15:16:56.824Z,92286.09
2022-10-29T15:19:23.764Z,92280.97
2022-10-29T15:21:50.447Z,92282.22
2022-10-29T15:24:20.890Z,92288.91
2022-10-29T15:26:55.078Z,92293.66
2022-10-29T15:29:33.374Z,92294.81
2022-10-29T15:32:01.449Z,92301.16
2022-10-29T15:34:37.145Z,92301.28
2022-10-29T15:37:19.090Z,92307.13
2022-10-29T15:40:17.183Z,92304.13
2022-10-29T15:42:45.428Z,92312.56
2022-10-29T15:45:46.942Z,92309.25
2022-10-29T15:48:13.542Z,92314.59
2022-10-29T15:50:41.698Z,92313.34
2022-10-29T15:53:15.945Z,92318.56
2022-10-29T15:55:42.706Z,92328.38
2022-10-29T15:58:16.887Z,92330.50
2022-10-29T16:00:43.619Z,92334.88
2022-10-29T16:03:14.021Z,92339.19
2022-10-29T16:05:41.976Z,92338.31
2022-10-29T16:08:28.920Z,92343.50
2022-10-29T16:10:56.288Z,92347.22
2022-10-29T16:13:26.599Z,92353.63
2022-10-29T16:15:53.335Z,92347.69
2022-10-29T16:18:20.005Z,92363.22
2022-10-29T16:20:46.753Z,92357.22
2022-10-29T16:23:13.526Z,92360.56
2022-10-29T16:25:41.789Z,92358.97
2022-10-29T16:28:09.445Z,92358.03
2022-10-29T16:30:36.926Z,92359.13
2022-10-29T16:33:03.854Z,92373.75
2022-10-29T16:35:30.668Z,92363.59
2022-10-29T16:37:57.570Z,92367.09
2022-10-29T16:40:25.580Z,92371.94
2022-10-29T16:42:54.965Z,92373.00
2022-10-29T16:45:26.652Z,92374.88
2022-10-29T16:47:53.458Z,92369.38
2022-10-29T16:50:27.857Z,92378.88
2022-10-29T16:52:58.435Z,92381.44
2022-10-29T16:55:25.979Z,92388.97
2022-10-29T16:57:52.990Z,92383.31
2022-10-29T17:00:19.644Z,92397.72
2022-10-29T17:02:46.196Z,92395.69
2022-10-29T17:05:13.276Z,92391.47
2022-10-29T17:07:40.038Z,92396.88
2022-10-29T17:10:07.208Z,92394.59
2022-10-29T17:12:33.975Z,92393.38
2022-10-29T17:15:00.572Z,92394.03
2022-10-29T17:17:30.141Z,92398.50
2022-10-29T17:19:56.978Z,92395.94
2022-10-29T17:22:23.716Z,92384.81
2022-10-29T17:24:50.291Z,92394.50
2022-10-29T17:27:16.970Z,92394.03
2022-10-29T17:29:43.651Z,92402.94
2022-10-29T17:32:10.355Z,92395.56
2022-10-29T17:34:36.999Z,92393.19
2022-10-29T17:37:03.816Z,92395.47
2022-10-29T17:39:30.497Z,92391.72
2022-10-29T17:41:57.206Z,92394.81
2022-10-29T17:44:28.621Z,92392.56
2022-10-29T17:46:55.431Z,92398.09
2022-10-29T17:49:22.207Z,92398.09
2022-10-29T17:51:48.826Z,92393.88
2022-10-29T17:54:16.121Z,92399.34
2022-10-29T17:56:42.832Z,92401.97
2022-10-29T17:59:09.422Z,92402.31
2022-10-29T18:01:36.233Z,92394.22
2022-10-29T18:04:03.955Z,92398.19
2022-10-29T18:06:30.662Z,92396.31
2022-10-29T18:08:57.261Z,92390.50
2022-10-29T18:11:24.313Z,92390.00
2022-10-29T18:13:51.528Z,92399.50
2022-10-29T18:16:19.681Z,92409.97
2022-10-29T18:19:00.833Z,92407.59
2022-10-29T18:21:28.529Z,92403.16
2022-10-29T18:23:55.184Z,92398.44
2022-10-29T18:26:26.878Z,92403.16
2022-10-29T18:28:54.325Z,92401.59
2022-10-29T18:31:21.454Z,92400.56
2022-10-29T18:33:48.179Z,92396.06
2022-10-29T18:36:14.935Z,92388.53
2022-10-29T18:38:41.582Z,92390.59
2022-10-29T18:41:08.286Z,92404.25
2022-10-29T18:43:35.878Z,92399.56
2022-10-29T18:46:06.414Z,92399.03
2022-10-29T18:48:36.945Z,92395.63
2022-10-29T18:51:06.050Z,92389.88
2022-10-29T18:53:32.743Z,92401.63
2022-10-29T18:55:59.516Z,92400.06
2022-10-29T18:58:26.151Z,92399.25
2022-10-29T19:00:52.899Z,92407.53
2022-10-29T19:03:19.749Z,92407.50
2022-10-29T19:05:46.582Z,92405.75
2022-10-29T19:08:13.329Z,92408.94
2022-10-29T19:10:41.239Z,92416.31
2022-10-29T19:13:08.053Z,92412.06
2022-10-29T19:15:35.526Z,92415.19
2022-10-29T19:18:02.177Z,92421.97
2022-10-29T19:20:29.003Z,92423.56
2022-10-29T19:22:56.824Z,92423.28
2022-10-29T19:25:24.519Z,92419.34
2022-10-29T19:27:51.165Z,92419.34
2022-10-29T19:30:17.969Z,92421.97
2022-10-29T19:32:44.709Z,92420.81
2022-10-29T19:35:11.424Z,92423.53
2022-10-29T19:37:39.042Z,92422.41
2022-10-29T19:40:07.469Z,92428.25
2022-10-29T19:42:34.134Z,92421.84
2022-10-29T19:45:00.707Z,92424.34
2022-10-29T19:47:27.302Z,92430.25
2022-10-29T19:49:53.938Z,92430.44
2022-10-29T19:52:21.431Z,92439.66
2022-10-29T19:54:48.009Z,92433.41
2022-10-29T19:57:14.703Z,92430.53
2022-10-29T19:59:41.298Z,92430.84
2022-10-29T20:02:10.061Z,92428.16
2022-10-29T20:04:36.755Z,92432.97
2022-10-29T20:07:03.358Z,92437.88
2022-10-29T20:09:30.542Z,92438.41
2022-10-29T20:11:57.168Z,92426.25
2022-10-29T20:14:28.802Z,92438.75
2022-10-29T20:16:55.879Z,92436.56
2022-10-29T20:19:22.601Z,92439.78
2022-10-29T20:21:49.278Z,92432.81
2022-10-29T20:24:15.921Z,92433.00
2022-10-29T20:26:42.577Z,92423.81
2022-10-29T20:29:09.200Z,92427.78
2022-10-29T20:31:40.084Z,92431.34
2022-10-29T20:34:08.355Z,92425.78
2022-10-29T20:36:35.309Z,92426.41
2022-10-29T20:39:02.112Z,92424.06
2022-10-29T20:41:29.251Z,92436.00
2022-10-29T20:43:59.957Z,92428.38
2022-10-29T20:46:26.712Z,92424.84
2022-10-29T20:48:53.390Z,92422.22
2022-10-29T20:51:20.161Z,92422.94
2022-10-29T20:53:46.893Z,92424.25
2022-10-29T20:56:16.199Z,92424.44
2022-10-29T20:58:43.378Z,92431.81
2022-10-29T21:01:11.719Z,92422.13
2022-10-29T21:03:38.426Z,92425.25
2022-10-29T21:06:06.035Z,92423.66
2022-10-29T21:08:32.681Z,92419.38
2022-10-29T21:11:10.134Z,92422.69
2022-10-29T21:13:36.947Z,92424.06
2022-10-29T21:16:08.258Z,92432.06
2022-10-29T21:18:39.022Z,92431.44
2022-10-29T21:21:05.991Z,92429.81
2022-10-29T21:23:32.871Z,92431.50
2022-10-29T21:25:59.791Z,92443.13
2022-10-29T21:28:26.450Z,92433.06
2022-10-29T21:30:53.019Z,92428.47
2022-10-29T21:33:19.689Z,92432.81
2022-10-29T21:35:53.821Z,92436.06
2022-10-29T21:38:23.794Z,92432.72
2022-10-29T21:40:50.453Z,92434.34
2022-10-29T21:43:17.472Z,92435.94
2022-10-29T21:45:44.719Z,92429.34
2022-10-29T21:48:11.840Z,92419.97
2022-10-29T21:50:38.495Z,92425.44
2022-10-29T21:53:05.717Z,92431.13
2022-10-29T21:55:32.510Z,92430.81
2022-10-29T21:57:59.517Z,92431.88
2022-10-29T22:00:26.871Z,92431.97
2022-10-29T22:02:53.688Z,92426.69
2022-10-29T22:05:20.345Z,92422.06
2022-10-29T22:07:47.011Z,92415.38
2022-10-29T22:10:13.635Z,92411.25
2022-10-29T22:12:40.200Z,92410.53
2022-10-29T22:15:07.620Z,92398.94
2022-10-29T22:17:34.265Z,92405.09
2022-10-29T22:20:00.882Z,92402.59
2022-10-29T22:22:27.533Z,92398.00
2022-10-29T22:24:54.117Z,92396.16
2022-10-29T22:27:20.826Z,92409.31
2022-10-29T22:29:51.984Z,92401.56
2022-10-29T22:32:21.119Z,92403.78
2022-10-29T22:34:47.718Z,92397.56
2022-10-29T22:37:14.352Z,92407.88
2022-10-29T22:39:40.974Z,92396.16
2022-10-29T22:42:07.594Z,92391.28
2022-10-29T22:44:34.194Z,92392.63
2022-10-29T22:47:00.810Z,92392.88
2022-10-29T22:49:27.537Z,92393.91
2022-10-29T22:51:58.658Z,92388.22
2022-10-29T22:54:28.037Z,92377.88
2022-10-29T22:56:54.643Z,92390.31
2022-10-29T22:59:21.306Z,92382.13
2022-10-29T23:01:48.093Z,92382.00
2022-10-29T23:04:15.666Z,92380.22
2022-10-29T23:06:42.247Z,92375.09
2022-10-29T23:09:08.987Z,92382.97
2022-10-29T23:11:39.032Z,92374.31
2022-10-29T23:14:05.773Z,92380.00
2022-10-29T23:16:33.307Z,92373.41
2022-10-29T23:19:01.303Z,92369.31
2022-10-29T23:21:28.323Z,92378.91
2022-10-29T23:23:55.052Z,92378.22
2022-10-29T23:26:22.497Z,92381.09
2022-10-29T23:28:49.216Z,92377.81
2022-10-29T23:31:17.382Z,92384.38
2022-10-29T23:33:45.197Z,92381.16
2022-10-29T23:36:12.005Z,92382.66
2022-10-29T23:38:38.551Z,92380.31
2022-10-29T23:41:05.197Z,92381.41
2022-10-29T23:43:31.847Z,92379.47
2022-10-29T23:45:58.569Z,92383.63
2022-10-29T23:48:25.181Z,92385.03
2022-10-29T23:50:51.954Z,92382.69
2022-10-29T23:53:18.825Z,92393.06
2022-10-29T23:55:45.574Z,92388.66
2022-10-29T23:58:13.650Z,92384.88
